createdAt,value
2018-04-26T00:00:01.093Z,26.60
2018-04-26T00:01:01.082Z,27.20
2018-04-26T00:02:01.072Z,28.30
2018-04-26T00:03:01.068Z,27.60
2018-04-26T00:04:01.063Z,26.30
2018-04-26T00:05:01.057Z,26.80
2018-04-26T00:06:01.047Z,27.40
2018-04-26T00:07:01.045Z,27.90
2018-04-26T00:08:01.040Z,28.40
2018-04-26T00:09:01.028Z,29.80
2018-04-26T00:10:01.021Z,29.60
2018-04-26T00:11:01.022Z,29.80
2018-04-26T00:12:01.008Z,31.10
2018-04-26T00:13:01.002Z,30.40
2018-04-26T00:14:00.995Z,30.80
2018-04-26T00:15:00.989Z,30.90
2018-04-26T00:16:00.981Z,30.90
2018-04-26T00:17:00.975Z,30.00
2018-04-26T00:18:00.968Z,30.90
2018-04-26T00:19:00.963Z,29.50
2018-04-26T00:20:00.963Z,31.30
2018-04-26T00:21:00.950Z,31.30
2018-04-26T00:22:00.940Z,31.90
2018-04-26T00:23:00.934Z,30.70
2018-04-26T00:24:00.928Z,30.60
2018-04-26T00:25:00.927Z,32.20
2018-04-26T00:26:00.915Z,31.50
2018-04-26T00:27:00.909Z,31.80
2018-04-26T00:28:00.901Z,32.10
2018-04-26T00:29:00.896Z,33.20
2018-04-26T00:30:00.890Z,32.30
2018-04-26T00:31:00.882Z,32.70
2018-04-26T00:32:00.875Z,32.60
2018-04-26T00:33:00.870Z,32.30
2018-04-26T00:34:00.863Z,33.40
2018-04-26T00:35:00.854Z,34.30
2018-04-26T00:36:00.848Z,36.10
2018-04-26T00:37:00.843Z,36.00
2018-04-26T00:38:00.835Z,36.60
2018-04-26T00:39:00.829Z,35.20
2018-04-26T00:40:00.822Z,35.30
2018-04-26T00:41:00.816Z,36.70
2018-04-26T00:42:00.808Z,36.50
2018-04-26T00:43:00.802Z,37.80
2018-04-26T00:44:00.796Z,37.50
2018-04-26T00:45:00.790Z,38.40
2018-04-26T00:46:00.781Z,39.20
2018-04-26T00:47:00.776Z,39.80
2018-04-26T00:48:00.781Z,40.10
2018-04-26T00:49:00.763Z,39.80
2018-04-26T00:50:00.756Z,41.80
2018-04-26T00:51:00.752Z,41.60
2018-04-26T00:52:00.743Z,41.80
2018-04-26T00:53:00.735Z,39.70
2018-04-26T00:54:00.731Z,40.40
2018-04-26T00:55:00.723Z,40.30
2018-04-26T00:56:00.718Z,41.40
2018-04-26T00:57:00.711Z,41.80
2018-04-26T00:58:00.704Z,41.60
2018-04-26T00:59:00.697Z,41.80
2018-04-26T01:00:00.694Z,41.80
2018-04-26T01:01:00.685Z,43.40
2018-04-26T01:02:00.678Z,41.90
2018-04-26T01:03:00.672Z,42.40
2018-04-26T01:04:00.667Z,42.00
2018-04-26T01:05:00.659Z,44.80
2018-04-26T01:06:00.652Z,42.50
2018-04-26T01:07:00.647Z,44.50
2018-04-26T01:08:00.639Z,43.30
2018-04-26T01:09:00.635Z,45.00
2018-04-26T01:10:00.626Z,44.60
2018-04-26T01:11:00.623Z,44.70
2018-04-26T01:12:00.620Z,47.30
2018-04-26T01:13:00.606Z,47.20
2018-04-26T01:14:00.597Z,47.20
2018-04-26T01:15:00.594Z,45.30
2018-04-26T01:16:00.586Z,46.70
2018-04-26T01:17:00.579Z,47.00
2018-04-26T01:18:00.572Z,45.30
2018-04-26T01:19:00.567Z,46.90
2018-04-26T01:20:00.569Z,47.80
2018-04-26T01:21:00.554Z,47.90
2018-04-26T01:22:00.547Z,48.10
2018-04-26T01:23:00.535Z,49.10
2018-04-26T01:24:00.529Z,46.80
2018-04-26T01:25:00.525Z,47.50
2018-04-26T01:26:00.515Z,48.10
2018-04-26T01:27:00.510Z,48.50
2018-04-26T01:28:00.502Z,47.70
2018-04-26T01:29:00.496Z,46.60
2018-04-26T01:30:00.488Z,47.50
2018-04-26T01:31:00.483Z,47.80
2018-04-26T01:32:00.478Z,47.20
2018-04-26T01:33:00.471Z,47.30
2018-04-26T01:34:00.463Z,47.50
2018-04-26T01:35:00.457Z,48.50
2018-04-26T01:36:00.450Z,47.70
2018-04-26T01:37:00.443Z,49.60
2018-04-26T01:38:00.436Z,47.90
2018-04-26T01:39:00.430Z,48.10
2018-04-26T01:40:00.424Z,48.60
2018-04-26T01:41:00.416Z,48.40
2018-04-26T01:42:00.410Z,49.00
2018-04-26T01:43:00.403Z,52.00
2018-04-26T01:44:00.401Z,49.40
2018-04-26T01:45:00.391Z,49.90
2018-04-26T01:46:00.383Z,49.90
2018-04-26T01:47:00.380Z,50.90
2018-04-26T01:48:00.370Z,49.30
2018-04-26T01:49:00.364Z,50.30
2018-04-26T01:50:00.356Z,49.80
2018-04-26T01:51:00.350Z,51.50
2018-04-26T01:52:00.343Z,50.80
2018-04-26T01:53:00.341Z,50.80
2018-04-26T01:54:00.330Z,52.30
2018-04-26T01:55:00.323Z,50.40
2018-04-26T01:56:00.316Z,52.70
2018-04-26T01:57:00.317Z,51.00
2018-04-26T01:58:00.302Z,50.10
2018-04-26T01:59:00.296Z,49.70
2018-04-26T02:00:00.292Z,50.60
2018-04-26T02:01:00.284Z,52.20
2018-04-26T02:02:00.278Z,51.60
2018-04-26T02:03:00.269Z,52.00
2018-04-26T02:04:00.260Z,50.00
2018-04-26T02:05:00.263Z,52.70
2018-04-26T02:06:00.248Z,50.80
2018-04-26T02:07:00.242Z,51.60
2018-04-26T02:08:00.236Z,53.60
2018-04-26T02:09:00.229Z,51.40
2018-04-26T02:10:00.322Z,53.90
2018-04-26T02:11:00.215Z,52.70
2018-04-26T02:12:00.208Z,51.20
2018-04-26T02:13:00.203Z,50.20
2018-04-26T02:14:00.194Z,50.20
2018-04-26T02:15:00.189Z,53.20
2018-04-26T02:16:00.181Z,52.10
2018-04-26T02:17:00.175Z,51.70
2018-04-26T02:18:00.168Z,53.50
2018-04-26T02:19:00.161Z,51.60
2018-04-26T02:20:00.154Z,52.10
2018-04-26T02:21:00.146Z,52.40
2018-04-26T02:22:00.142Z,53.10
2018-04-26T02:23:00.134Z,50.30
2018-04-26T02:24:00.128Z,50.80
2018-04-26T02:25:00.121Z,51.60
2018-04-26T02:26:00.113Z,51.60
2018-04-26T02:27:00.106Z,52.50
2018-04-26T02:28:00.100Z,54.00
2018-04-26T02:29:00.097Z,54.60
2018-04-26T02:30:00.085Z,55.00
2018-04-26T02:31:00.079Z,53.60
2018-04-26T02:32:00.074Z,52.70
2018-04-26T02:33:00.067Z,53.00
2018-04-26T02:34:00.064Z,52.30
2018-04-26T02:35:00.052Z,52.90
2018-04-26T02:36:00.043Z,53.30
2018-04-26T02:37:00.039Z,54.00
2018-04-26T02:38:00.031Z,54.40
2018-04-26T02:39:00.028Z,52.60
2018-04-26T02:40:00.117Z,52.90
2018-04-26T02:41:00.011Z,53.60
2018-04-26T02:42:00.005Z,53.20
2018-04-26T02:42:59.996Z,52.50
2018-04-26T02:43:59.990Z,52.90
2018-04-26T02:44:59.987Z,51.60
2018-04-26T02:45:59.976Z,51.30
2018-04-26T02:46:59.973Z,51.00
2018-04-26T02:47:59.962Z,51.00
2018-04-26T02:48:59.956Z,51.30
2018-04-26T02:49:59.949Z,51.00
2018-04-26T02:50:59.941Z,53.20
2018-04-26T02:51:59.934Z,51.30
2018-04-26T02:52:59.926Z,52.10
2018-04-26T02:53:59.920Z,51.90
2018-04-26T02:54:59.914Z,51.30
2018-04-26T02:55:59.906Z,51.50
2018-04-26T02:56:59.900Z,51.00
2018-04-26T02:57:59.896Z,51.60
2018-04-26T02:58:59.886Z,51.60
2018-04-26T02:59:59.880Z,52.30
2018-04-26T03:00:59.871Z,51.50
2018-04-26T03:01:59.864Z,52.40
2018-04-26T03:02:59.861Z,52.00
2018-04-26T03:03:59.860Z,51.20
2018-04-26T03:04:59.844Z,51.20
2018-04-26T03:05:59.836Z,52.20
2018-04-26T03:06:59.829Z,53.00
2018-04-26T03:07:59.821Z,52.10
2018-04-26T03:08:59.815Z,51.90
2018-04-26T03:09:59.808Z,51.90
2018-04-26T03:10:59.800Z,51.80
2018-04-26T03:11:59.794Z,52.50
2018-04-26T03:12:59.786Z,50.50
2018-04-26T03:13:59.780Z,50.50
2018-04-26T03:14:59.774Z,50.70
2018-04-26T03:15:59.767Z,51.90
2018-04-26T03:16:59.759Z,51.70
2018-04-26T03:17:59.753Z,51.50
2018-04-26T03:18:59.745Z,51.90
2018-04-26T03:19:59.742Z,53.00
2018-04-26T03:20:59.731Z,52.00
2018-04-26T03:21:59.723Z,51.60
2018-04-26T03:22:59.716Z,50.50
2018-04-26T03:23:59.710Z,51.20
2018-04-26T03:24:59.703Z,51.70
2018-04-26T03:25:59.695Z,50.00
2018-04-26T03:26:59.688Z,50.50
2018-04-26T03:27:59.681Z,49.00
2018-04-26T03:28:59.674Z,50.30
2018-04-26T03:29:59.669Z,50.30
2018-04-26T03:30:59.701Z,50.40
2018-04-26T03:31:59.657Z,52.00
2018-04-26T03:32:59.646Z,52.50
2018-04-26T03:33:59.637Z,51.00
2018-04-26T03:34:59.632Z,50.80
2018-04-26T03:35:59.622Z,51.10
2018-04-26T03:36:59.617Z,50.70
2018-04-26T03:37:59.609Z,49.80
2018-04-26T03:38:59.601Z,50.50
2018-04-26T03:39:59.597Z,50.10
2018-04-26T03:40:59.588Z,49.70
2018-04-26T03:41:59.580Z,50.50
2018-04-26T03:42:59.574Z,51.30
2018-04-26T03:43:59.566Z,49.10
2018-04-26T03:44:59.560Z,49.70
2018-04-26T03:45:59.555Z,50.40
2018-04-26T03:46:59.545Z,50.50
2018-04-26T03:47:59.538Z,51.40
2018-04-26T03:48:59.532Z,50.30
2018-04-26T03:49:59.523Z,50.50
2018-04-26T03:50:59.516Z,49.20
2018-04-26T03:51:59.510Z,50.00
2018-04-26T03:52:59.502Z,49.70
2018-04-26T03:53:59.499Z,47.10
2018-04-26T03:54:59.488Z,45.90
2018-04-26T03:55:59.480Z,45.50
2018-04-26T03:56:59.474Z,43.80
2018-04-26T03:57:59.466Z,43.80
2018-04-26T03:58:59.458Z,43.50
2018-04-26T03:59:59.507Z,45.10
2018-04-26T04:00:59.445Z,44.80
2018-04-26T04:01:59.438Z,45.30
2018-04-26T04:02:59.431Z,46.60
2018-04-26T04:03:59.423Z,47.70
2018-04-26T04:04:59.417Z,46.50
2018-04-26T04:05:59.483Z,45.80
2018-04-26T04:06:59.402Z,45.70
2018-04-26T04:07:59.393Z,45.90
2018-04-26T04:08:59.388Z,45.60
2018-04-26T04:09:59.380Z,46.80
2018-04-26T04:10:59.372Z,45.80
2018-04-26T04:11:59.366Z,45.30
2018-04-26T04:12:59.359Z,47.30
2018-04-26T04:13:59.351Z,44.20
2018-04-26T04:14:59.345Z,46.50
2018-04-26T04:15:59.337Z,45.30
2018-04-26T04:16:59.328Z,43.10
2018-04-26T04:17:59.322Z,43.00
2018-04-26T04:18:59.315Z,43.70
2018-04-26T04:19:59.308Z,42.00
2018-04-26T04:20:59.305Z,43.10
2018-04-26T04:21:59.293Z,43.70
2018-04-26T04:22:59.300Z,43.10
2018-04-26T04:23:59.278Z,42.70
2018-04-26T04:24:59.271Z,42.70
2018-04-26T04:25:59.264Z,41.60
2018-04-26T04:26:59.256Z,44.30
2018-04-26T04:27:59.323Z,42.40
2018-04-26T04:28:59.242Z,43.00
2018-04-26T04:29:59.234Z,43.30
2018-04-26T04:30:59.228Z,41.80
2018-04-26T04:31:59.220Z,42.40
2018-04-26T04:32:59.214Z,42.20
2018-04-26T04:33:59.205Z,41.60
2018-04-26T04:34:59.198Z,42.60
2018-04-26T04:35:59.192Z,40.60
2018-04-26T04:36:59.184Z,41.60
2018-04-26T04:37:59.174Z,41.00
2018-04-26T04:38:59.170Z,40.40
2018-04-26T04:39:59.162Z,40.20
2018-04-26T04:40:59.155Z,39.20
2018-04-26T04:41:59.146Z,38.70
2018-04-26T04:42:59.140Z,39.60
2018-04-26T04:43:59.134Z,40.90
2018-04-26T04:44:59.127Z,40.20
2018-04-26T04:45:59.117Z,39.90
2018-04-26T04:46:59.110Z,38.90
2018-04-26T04:47:59.103Z,40.10
2018-04-26T04:48:59.096Z,39.20
2018-04-26T04:49:59.089Z,38.40
2018-04-26T04:50:59.082Z,39.20
2018-04-26T04:51:59.074Z,38.60
2018-04-26T04:52:59.067Z,39.00
2018-04-26T04:53:59.059Z,40.70
2018-04-26T04:54:59.055Z,40.40
2018-04-26T04:55:59.045Z,39.10
2018-04-26T04:56:59.038Z,37.90
2018-04-26T04:57:59.031Z,39.70
2018-04-26T04:58:59.024Z,38.80
2018-04-26T04:59:59.016Z,38.10
2018-04-26T05:00:59.009Z,38.60
2018-04-26T05:01:59.007Z,38.90
2018-04-26T05:02:58.994Z,38.70
2018-04-26T05:03:58.987Z,37.60
2018-04-26T05:04:58.980Z,39.80
2018-04-26T05:05:58.974Z,37.20
2018-04-26T05:06:58.965Z,39.80
2018-04-26T05:07:58.957Z,38.90
2018-04-26T05:08:58.951Z,37.60
2018-04-26T05:09:58.943Z,37.10
2018-04-26T05:10:58.933Z,38.30
2018-04-26T05:11:58.926Z,38.30
2018-04-26T05:12:58.922Z,38.30
2018-04-26T05:13:58.917Z,38.70
2018-04-26T05:14:58.907Z,39.40
2018-04-26T05:15:58.899Z,37.30
2018-04-26T05:16:58.892Z,38.00
2018-04-26T05:17:58.883Z,38.10
2018-04-26T05:18:58.876Z,37.50
2018-04-26T05:19:58.870Z,37.00
2018-04-26T05:20:58.861Z,37.70
2018-04-26T05:21:58.853Z,37.00
2018-04-26T05:22:58.847Z,37.10
2018-04-26T05:23:58.921Z,36.60
2018-04-26T05:24:58.830Z,38.10
2018-04-26T05:25:58.824Z,37.40
2018-04-26T05:26:58.817Z,39.20
2018-04-26T05:27:58.812Z,38.80
2018-04-26T05:28:58.802Z,37.80
2018-04-26T05:29:58.876Z,39.10
2018-04-26T05:30:58.788Z,38.00
2018-04-26T05:31:58.784Z,39.30
2018-04-26T05:32:58.771Z,38.30
2018-04-26T05:33:58.763Z,39.60
2018-04-26T05:34:58.756Z,40.00
2018-04-26T05:35:58.758Z,39.90
2018-04-26T05:36:58.747Z,39.80
2018-04-26T05:37:58.731Z,40.60
2018-04-26T05:38:58.726Z,40.30
2018-04-26T05:39:58.718Z,39.70
2018-04-26T05:40:58.710Z,41.60
2018-04-26T05:41:58.703Z,41.50
2018-04-26T05:42:58.693Z,43.90
2018-04-26T05:43:58.687Z,41.60
2018-04-26T05:44:58.680Z,41.70
2018-04-26T05:45:58.671Z,42.70
2018-04-26T05:46:58.666Z,43.20
2018-04-26T05:47:58.657Z,42.10
2018-04-26T05:48:58.649Z,42.40
2018-04-26T05:49:58.642Z,42.50
2018-04-26T05:50:58.634Z,44.30
2018-04-26T05:51:58.627Z,43.40
2018-04-26T05:52:58.620Z,42.80
2018-04-26T05:53:58.611Z,44.00
2018-04-26T05:54:58.604Z,44.40
2018-04-26T05:55:58.707Z,44.90
2018-04-26T05:56:58.591Z,43.40
2018-04-26T05:57:58.585Z,42.80
2018-04-26T05:58:58.574Z,43.80
2018-04-26T05:59:58.567Z,44.70
2018-04-26T06:00:58.559Z,44.30
2018-04-26T06:01:58.551Z,45.30
2018-04-26T06:02:58.546Z,43.80
2018-04-26T06:03:58.536Z,44.20
2018-04-26T06:04:58.531Z,44.70
2018-04-26T06:05:58.520Z,44.90
2018-04-26T06:06:58.515Z,43.90
2018-04-26T06:07:58.505Z,46.10
2018-04-26T06:08:58.498Z,46.00
2018-04-26T06:09:58.590Z,45.30
2018-04-26T06:10:58.486Z,44.40
2018-04-26T06:11:58.475Z,45.40
2018-04-26T06:12:58.467Z,45.90
2018-04-26T06:13:58.459Z,46.50
2018-04-26T06:14:58.451Z,46.00
2018-04-26T06:15:58.444Z,46.70
2018-04-26T06:16:58.486Z,47.20
2018-04-26T06:17:58.429Z,48.40
2018-04-26T06:18:58.422Z,48.60
2018-04-26T06:19:58.425Z,48.80
2018-04-26T06:20:58.409Z,49.00
2018-04-26T06:21:58.502Z,48.30
2018-04-26T06:22:58.391Z,49.30
2018-04-26T06:23:58.384Z,48.80
2018-04-26T06:24:58.405Z,47.50
2018-04-26T06:25:58.377Z,47.50
2018-04-26T06:26:58.365Z,47.60
2018-04-26T06:27:58.353Z,48.70
2018-04-26T06:28:58.347Z,49.60
2018-04-26T06:29:58.337Z,48.20
2018-04-26T06:30:58.405Z,49.50
2018-04-26T06:31:58.322Z,49.90
2018-04-26T06:32:58.316Z,52.60
2018-04-26T06:33:58.307Z,51.40
2018-04-26T06:34:58.299Z,51.60
2018-04-26T06:35:58.300Z,52.20
2018-04-26T06:36:58.338Z,52.80
2018-04-26T06:37:58.275Z,52.20
2018-04-26T06:38:58.268Z,53.60
2018-04-26T06:39:58.260Z,53.30
2018-04-26T06:40:58.252Z,53.50
2018-04-26T06:41:58.245Z,54.50
2018-04-26T06:42:58.236Z,54.70
2018-04-26T06:43:58.230Z,55.00
2018-04-26T06:44:58.220Z,53.80
2018-04-26T06:45:58.213Z,54.50
2018-04-26T06:46:58.213Z,55.20
2018-04-26T06:47:58.198Z,56.80
2018-04-26T06:48:58.191Z,55.20
2018-04-26T06:49:58.183Z,55.20
2018-04-26T06:50:58.176Z,53.60
2018-04-26T06:51:58.172Z,54.90
2018-04-26T06:52:58.160Z,55.90
2018-04-26T06:53:58.153Z,52.90
2018-04-26T06:54:58.145Z,53.80
2018-04-26T06:55:58.139Z,53.40
2018-04-26T06:56:58.130Z,55.30
2018-04-26T06:57:58.125Z,52.80
2018-04-26T06:58:58.115Z,52.80
2018-04-26T06:59:58.107Z,53.90
2018-04-26T07:00:58.098Z,53.50
2018-04-26T07:01:58.091Z,52.70
2018-04-26T07:02:58.092Z,53.70
2018-04-26T07:03:58.176Z,53.50
2018-04-26T07:04:58.069Z,53.50
2018-04-26T07:05:58.060Z,53.10
2018-04-26T07:06:58.058Z,53.00
2018-04-26T07:07:58.046Z,52.70
2018-04-26T07:08:58.039Z,53.60
2018-04-26T07:09:58.030Z,53.80
2018-04-26T07:10:58.020Z,53.40
2018-04-26T07:11:58.028Z,55.50
2018-04-26T07:12:58.007Z,54.70
2018-04-26T07:13:57.998Z,54.60
2018-04-26T07:14:57.992Z,53.60
2018-04-26T07:15:57.983Z,54.30
2018-04-26T07:16:57.979Z,53.30
2018-04-26T07:17:57.964Z,55.80
2018-04-26T07:18:57.961Z,53.50
2018-04-26T07:19:57.951Z,52.90
2018-04-26T07:20:57.944Z,53.70
2018-04-26T07:21:57.936Z,54.40
2018-04-26T07:22:57.926Z,56.40
2018-04-26T07:23:57.920Z,54.90
2018-04-26T07:24:57.913Z,54.50
2018-04-26T07:25:57.904Z,53.20
2018-04-26T07:26:57.897Z,53.70
2018-04-26T07:27:57.889Z,55.00
2018-04-26T07:28:57.882Z,55.50
2018-04-26T07:29:57.873Z,56.80
2018-04-26T07:30:57.868Z,55.30
2018-04-26T07:31:57.858Z,56.70
2018-04-26T07:32:57.850Z,57.00
2018-04-26T07:33:57.845Z,59.50
2018-04-26T07:34:57.891Z,56.10
2018-04-26T07:35:57.827Z,58.30
2018-04-26T07:36:57.820Z,55.40
2018-04-26T07:37:57.810Z,56.30
2018-04-26T07:38:57.802Z,54.80
2018-04-26T07:39:57.796Z,57.20
2018-04-26T07:40:57.789Z,56.30
2018-04-26T07:41:57.780Z,59.00
2018-04-26T07:42:57.773Z,58.70
2018-04-26T07:43:57.765Z,58.70
2018-04-26T07:44:57.758Z,58.40
2018-04-26T07:45:57.747Z,57.30
2018-04-26T07:46:57.742Z,56.30
2018-04-26T07:47:57.738Z,58.00
2018-04-26T07:48:57.727Z,57.10
2018-04-26T07:49:57.718Z,57.90
2018-04-26T07:50:57.711Z,57.10
2018-04-26T07:51:57.701Z,57.20
2018-04-26T07:52:57.695Z,56.10
2018-04-26T07:53:57.687Z,57.20
2018-04-26T07:54:57.679Z,57.30
2018-04-26T07:55:57.673Z,56.70
2018-04-26T07:56:57.664Z,56.00
2018-04-26T07:57:57.755Z,56.20
2018-04-26T07:58:57.648Z,56.00
2018-04-26T07:59:57.641Z,54.40
2018-04-26T08:00:57.633Z,55.00
2018-04-26T08:01:57.624Z,55.70
2018-04-26T08:02:57.617Z,56.60
2018-04-26T08:03:57.711Z,57.60
2018-04-26T08:04:57.601Z,59.90
2018-04-26T08:05:57.597Z,60.50
2018-04-26T08:06:57.587Z,58.50
2018-04-26T08:07:57.579Z,59.10
2018-04-26T08:08:57.570Z,59.40
2018-04-26T08:09:57.560Z,58.70
2018-04-26T08:10:57.553Z,58.60
2018-04-26T08:11:57.546Z,59.60
2018-04-26T08:12:57.539Z,60.00
2018-04-26T08:13:57.530Z,59.10
2018-04-26T08:14:57.522Z,61.50
2018-04-26T08:15:57.615Z,58.10
2018-04-26T08:16:57.507Z,59.10
2018-04-26T08:17:57.498Z,61.30
2018-04-26T08:18:57.490Z,60.20
2018-04-26T08:19:57.483Z,60.60
2018-04-26T08:20:57.475Z,60.90
2018-04-26T08:21:57.567Z,62.10
2018-04-26T08:22:57.459Z,61.70
2018-04-26T08:23:57.451Z,61.20
2018-04-26T08:24:57.494Z,60.60
2018-04-26T08:25:57.434Z,60.50
2018-04-26T08:26:57.427Z,64.60
2018-04-26T08:27:57.520Z,63.00
2018-04-26T08:28:57.412Z,61.60
2018-04-26T08:29:57.403Z,62.80
2018-04-26T08:30:57.393Z,59.70
2018-04-26T08:31:57.388Z,59.70
2018-04-26T08:32:57.379Z,62.50
2018-04-26T08:33:57.370Z,64.00
2018-04-26T08:34:57.362Z,63.20
2018-04-26T08:35:57.355Z,61.90
2018-04-26T08:36:57.377Z,62.00
2018-04-26T08:37:57.339Z,62.20
2018-04-26T08:38:57.332Z,63.50
2018-04-26T08:39:57.323Z,60.80
2018-04-26T08:40:57.315Z,62.20
2018-04-26T08:41:57.306Z,60.60
2018-04-26T08:42:57.302Z,64.30
2018-04-26T08:43:57.290Z,61.40
2018-04-26T08:44:57.283Z,62.80
2018-04-26T08:45:57.275Z,61.00
2018-04-26T08:46:57.265Z,61.40
2018-04-26T08:47:57.258Z,59.60
2018-04-26T08:48:57.249Z,60.90
2018-04-26T08:49:57.242Z,58.40
2018-04-26T08:50:57.233Z,59.50
2018-04-26T08:51:57.225Z,60.60
2018-04-26T08:52:57.218Z,61.90
2018-04-26T08:53:57.210Z,62.00
2018-04-26T08:54:57.203Z,60.20
2018-04-26T08:55:57.194Z,62.60
2018-04-26T08:56:57.189Z,62.90
2018-04-26T08:57:57.176Z,59.40
2018-04-26T08:58:57.169Z,62.70
2018-04-26T08:59:57.164Z,63.10
2018-04-26T09:00:57.153Z,62.10
2018-04-26T09:01:57.144Z,60.70
2018-04-26T09:02:57.138Z,60.40
2018-04-26T09:03:57.128Z,59.50
2018-04-26T09:04:57.121Z,62.00
2018-04-26T09:05:57.109Z,62.90
2018-04-26T09:06:57.104Z,61.80
2018-04-26T09:07:57.096Z,63.50
2018-04-26T09:08:57.089Z,59.80
2018-04-26T09:09:57.079Z,63.50
2018-04-26T09:10:57.072Z,66.80
2018-04-26T09:11:57.064Z,64.60
2018-04-26T09:12:57.054Z,64.30
2018-04-26T09:13:57.047Z,65.30
2018-04-26T09:14:57.039Z,63.30
2018-04-26T09:15:57.065Z,64.70
2018-04-26T09:16:57.024Z,66.40
2018-04-26T09:17:57.015Z,66.20
2018-04-26T09:18:57.007Z,65.00
2018-04-26T09:19:57.001Z,62.50
2018-04-26T09:20:56.991Z,63.70
2018-04-26T09:21:57.003Z,65.40
2018-04-26T09:22:56.981Z,62.60
2018-04-26T09:23:56.968Z,62.90
2018-04-26T09:24:56.959Z,64.80
2018-04-26T09:25:56.951Z,64.50
2018-04-26T09:26:56.943Z,64.80
2018-04-26T09:27:56.935Z,63.20
2018-04-26T09:28:56.927Z,61.20
2018-04-26T09:29:56.985Z,61.00
2018-04-26T09:30:56.911Z,61.80
2018-04-26T09:31:56.903Z,61.40
2018-04-26T09:32:56.895Z,63.10
2018-04-26T09:33:56.886Z,61.30
2018-04-26T09:34:56.878Z,62.90
2018-04-26T09:35:56.874Z,61.30
2018-04-26T09:36:56.861Z,60.80
2018-04-26T09:37:56.854Z,63.30
2018-04-26T09:38:56.846Z,62.50
2018-04-26T09:39:56.838Z,63.40
2018-04-26T09:40:56.832Z,61.50
2018-04-26T09:41:56.829Z,62.80
2018-04-26T09:42:56.814Z,61.30
2018-04-26T09:43:56.811Z,64.70
2018-04-26T09:44:56.799Z,61.90
2018-04-26T09:45:56.790Z,61.40
2018-04-26T09:46:56.782Z,62.50
2018-04-26T09:47:56.775Z,58.10
2018-04-26T09:48:56.767Z,59.50
2018-04-26T09:49:56.760Z,59.50
2018-04-26T09:50:56.750Z,60.90
2018-04-26T09:51:56.743Z,58.50
2018-04-26T09:52:56.735Z,62.40
2018-04-26T09:53:56.725Z,61.10
2018-04-26T09:54:56.720Z,61.50
2018-04-26T09:55:56.715Z,60.20
2018-04-26T09:56:56.702Z,61.10
2018-04-26T09:57:56.693Z,61.60
2018-04-26T09:58:56.689Z,61.00
2018-04-26T09:59:56.684Z,62.10
2018-04-26T10:00:56.672Z,62.00
2018-04-26T10:01:56.663Z,63.90
2018-04-26T10:02:56.660Z,66.40
2018-04-26T10:03:56.648Z,64.50
2018-04-26T10:04:56.640Z,64.30
2018-04-26T10:05:56.631Z,62.70
2018-04-26T10:06:56.624Z,62.30
2018-04-26T10:07:56.618Z,61.70
2018-04-26T10:08:56.608Z,61.00
2018-04-26T10:09:56.599Z,60.70
2018-04-26T10:10:56.620Z,62.40
2018-04-26T10:11:56.583Z,61.10
2018-04-26T10:12:56.575Z,60.20
2018-04-26T10:13:56.571Z,61.00
2018-04-26T10:14:56.563Z,60.90
2018-04-26T10:15:56.552Z,62.70
2018-04-26T10:16:56.605Z,62.00
2018-04-26T10:17:56.535Z,60.90
2018-04-26T10:18:56.528Z,59.60
2018-04-26T10:19:56.520Z,60.30
2018-04-26T10:20:56.513Z,61.00
2018-04-26T10:21:56.504Z,59.10
2018-04-26T10:22:56.497Z,60.70
2018-04-26T10:23:56.489Z,60.50
2018-04-26T10:24:56.482Z,60.00
2018-04-26T10:25:56.472Z,58.50
2018-04-26T10:26:56.465Z,59.80
2018-04-26T10:27:56.457Z,59.50
2018-04-26T10:28:56.450Z,59.20
2018-04-26T10:29:56.472Z,58.80
2018-04-26T10:30:56.435Z,58.90
2018-04-26T10:31:56.428Z,58.40
2018-04-26T10:32:56.420Z,59.50
2018-04-26T10:33:56.412Z,59.70
2018-04-26T10:34:56.405Z,59.60
2018-04-26T10:35:56.403Z,59.20
2018-04-26T10:36:56.388Z,61.50
2018-04-26T10:37:56.381Z,54.30
2018-04-26T10:38:56.379Z,53.10
2018-04-26T10:39:56.367Z,52.30
2018-04-26T10:40:56.368Z,51.30
2018-04-26T10:41:56.355Z,51.90
2018-04-26T10:42:56.352Z,52.60
2018-04-26T10:43:56.337Z,52.10
2018-04-26T10:44:56.330Z,53.20
2018-04-26T10:45:56.322Z,50.40
2018-04-26T10:46:56.315Z,51.90
2018-04-26T10:47:56.309Z,51.90
2018-04-26T10:48:56.300Z,51.30
2018-04-26T10:49:56.293Z,52.60
2018-04-26T10:50:56.286Z,53.10
2018-04-26T10:51:56.280Z,54.30
2018-04-26T10:52:56.316Z,53.10
2018-04-26T10:53:56.263Z,54.20
2018-04-26T10:54:56.256Z,52.20
2018-04-26T10:55:56.253Z,51.50
2018-04-26T10:56:56.242Z,51.00
2018-04-26T10:57:56.234Z,53.10
2018-04-26T10:58:56.228Z,52.40
2018-04-26T10:59:56.221Z,51.00
2018-04-26T11:00:56.213Z,54.60
2018-04-26T11:01:56.206Z,54.40
2018-04-26T11:02:56.198Z,53.10
2018-04-26T11:03:56.194Z,52.80
2018-04-26T11:04:56.186Z,51.50
2018-04-26T11:05:56.178Z,54.30
2018-04-26T11:06:56.169Z,53.00
2018-04-26T11:07:56.166Z,53.90
2018-04-26T11:08:56.161Z,51.80
2018-04-26T11:09:56.149Z,52.80
2018-04-26T11:10:56.142Z,50.70
2018-04-26T11:11:56.137Z,51.20
2018-04-26T11:12:56.129Z,48.90
2018-04-26T11:13:56.121Z,51.40
2018-04-26T11:14:56.115Z,51.00
2018-04-26T11:15:56.106Z,50.80
2018-04-26T11:16:56.105Z,48.30
2018-04-26T11:17:56.094Z,47.80
2018-04-26T11:18:56.091Z,49.40
2018-04-26T11:19:56.082Z,51.40
2018-04-26T11:20:56.074Z,52.30
2018-04-26T11:21:56.071Z,50.70
2018-04-26T11:22:56.060Z,49.60
2018-04-26T11:23:56.054Z,50.30
2018-04-26T11:24:56.046Z,52.10
2018-04-26T11:25:56.039Z,52.80
2018-04-26T11:26:56.033Z,51.20
2018-04-26T11:27:56.026Z,48.80
2018-04-26T11:28:56.021Z,48.80
2018-04-26T11:29:56.012Z,49.60
2018-04-26T11:30:56.011Z,50.40
2018-04-26T11:31:55.997Z,50.10
2018-04-26T11:32:55.995Z,50.40
2018-04-26T11:33:55.985Z,49.90
2018-04-26T11:34:55.978Z,47.80
2018-04-26T11:35:55.973Z,48.60
2018-04-26T11:36:55.965Z,47.70
2018-04-26T11:37:55.961Z,46.60
2018-04-26T11:38:55.952Z,47.50
2018-04-26T11:39:55.945Z,46.40
2018-04-26T11:40:55.938Z,47.10
2018-04-26T11:41:55.933Z,46.20
2018-04-26T11:42:55.925Z,45.80
2018-04-26T11:43:55.919Z,48.00
2018-04-26T11:44:55.912Z,45.10
2018-04-26T11:45:55.903Z,47.80
2018-04-26T11:46:55.899Z,45.60
2018-04-26T11:47:55.892Z,48.30
2018-04-26T11:48:55.886Z,45.60
2018-04-26T11:49:55.879Z,46.20
2018-04-26T11:50:55.873Z,49.00
2018-04-26T11:51:55.866Z,49.50
2018-04-26T11:52:55.862Z,48.70
2018-04-26T11:53:55.854Z,49.50
2018-04-26T11:54:55.846Z,47.70
2018-04-26T11:55:55.840Z,47.20
2018-04-26T11:56:55.835Z,47.30
2018-04-26T11:57:55.827Z,49.50
2018-04-26T11:58:55.822Z,44.40
2018-04-26T11:59:55.816Z,44.70
2018-04-26T12:00:55.810Z,42.90
2018-04-26T12:01:55.803Z,40.30
2018-04-26T12:02:56.048Z,40.20
2018-04-26T12:03:55.791Z,38.60
2018-04-26T12:04:55.785Z,38.10
2018-04-26T12:05:55.778Z,39.60
2018-04-26T12:06:55.777Z,40.70
2018-04-26T12:07:55.767Z,45.80
2018-04-26T12:08:55.761Z,44.60
2018-04-26T12:09:55.755Z,42.90
2018-04-26T12:10:55.749Z,44.50
2018-04-26T12:11:55.743Z,44.20
2018-04-26T12:12:55.737Z,44.60
2018-04-26T12:13:55.731Z,42.60
2018-04-26T12:14:55.726Z,45.00
2018-04-26T12:15:55.728Z,44.60
2018-04-26T12:16:55.714Z,42.20
2018-04-26T12:17:55.711Z,43.00
2018-04-26T12:18:55.707Z,41.00
2018-04-26T12:19:55.705Z,43.90
2018-04-26T12:20:55.690Z,42.30
2018-04-26T12:21:55.684Z,42.20
2018-04-26T12:22:55.681Z,43.90
2018-04-26T12:23:55.746Z,41.80
2018-04-26T12:24:55.669Z,40.50
2018-04-26T12:25:55.661Z,40.90
2018-04-26T12:26:55.658Z,41.50
2018-04-26T12:27:55.653Z,40.80
2018-04-26T12:28:55.648Z,40.40
2018-04-26T12:29:55.643Z,37.80
2018-04-26T12:30:55.638Z,40.00
2018-04-26T12:31:55.631Z,39.50
2018-04-26T12:32:55.628Z,39.30
2018-04-26T12:33:55.621Z,37.20
2018-04-26T12:34:55.617Z,36.40
2018-04-26T12:35:55.613Z,36.70
2018-04-26T12:36:55.609Z,37.50
2018-04-26T12:37:55.604Z,36.10
2018-04-26T12:38:55.599Z,34.50
2018-04-26T12:39:55.595Z,35.80
2018-04-26T12:40:55.592Z,38.70
2018-04-26T12:41:55.586Z,42.00
2018-04-26T12:42:55.584Z,37.80
2018-04-26T12:43:55.577Z,42.60
2018-04-26T12:44:55.575Z,39.60
2018-04-26T12:45:55.567Z,38.60
2018-04-26T12:46:55.564Z,37.90
2018-04-26T12:47:55.561Z,40.10
2018-04-26T12:48:55.556Z,40.90
2018-04-26T12:49:55.551Z,38.40
2018-04-26T12:50:55.546Z,39.80
2018-04-26T12:51:55.544Z,39.90